sensor_id;sensor_type;location;lat;lon;timestamp;P1;durP1;ratioP1;P2;durP2;ratioP2
69716;SDS011;67420;46.144;19.666;2023-12-04T00:08:43;7.63;;;5.63;;
69716;SDS011;67420;46.144;19.666;2023-12-04T00:18:46;8.65;;;6.60;;
69716;SDS011;67420;46.144;19.666;2023-12-04T00:28:48;10.05;;;6.70;;
69716;SDS011;67420;46.144;19.666;2023-12-04T00:38:50;10.32;;;7.10;;
69716;SDS011;67420;46.144;19.666;2023-12-04T00:48:52;10.07;;;7.03;;
69716;SDS011;67420;46.144;19.666;2023-12-04T00:58:54;9.93;;;7.53;;
69716;SDS011;67420;46.144;19.666;2023-12-04T01:08:56;12.90;;;8.32;;
69716;SDS011;67420;46.144;19.666;2023-12-04T01:18:58;10.98;;;8.18;;
69716;SDS011;67420;46.144;19.666;2023-12-04T01:29:00;11.55;;;8.48;;
69716;SDS011;67420;46.144;19.666;2023-12-04T01:39:02;11.20;;;8.25;;
69716;SDS011;67420;46.144;19.666;2023-12-04T01:49:05;12.75;;;9.20;;
69716;SDS011;67420;46.144;19.666;2023-12-04T01:59:07;12.45;;;8.93;;
69716;SDS011;67420;46.144;19.666;2023-12-04T02:09:09;13.40;;;8.85;;
69716;SDS011;67420;46.144;19.666;2023-12-04T02:19:15;12.73;;;8.85;;
69716;SDS011;67420;46.144;19.666;2023-12-04T02:29:20;11.85;;;8.40;;
69716;SDS011;67420;46.144;19.666;2023-12-04T02:39:27;11.43;;;8.85;;
69716;SDS011;67420;46.144;19.666;2023-12-04T02:49:30;10.77;;;8.40;;
69716;SDS011;67420;46.144;19.666;2023-12-04T02:59:32;13.25;;;9.20;;
69716;SDS011;67420;46.144;19.666;2023-12-04T03:09:34;11.63;;;8.02;;
69716;SDS011;67420;46.144;19.666;2023-12-04T03:19:49;11.38;;;8.13;;
69716;SDS011;67420;46.144;19.666;2023-12-04T03:29:51;9.68;;;7.80;;
69716;SDS011;67420;46.144;19.666;2023-12-04T03:39:53;10.60;;;7.90;;
69716;SDS011;67420;46.144;19.666;2023-12-04T03:49:55;9.73;;;7.43;;
69716;SDS011;67420;46.144;19.666;2023-12-04T03:59:57;9.38;;;7.47;;
69716;SDS011;67420;46.144;19.666;2023-12-04T04:09:59;10.55;;;7.40;;
69716;SDS011;67420;46.144;19.666;2023-12-04T04:20:01;8.70;;;6.72;;
69716;SDS011;67420;46.144;19.666;2023-12-04T04:30:04;8.45;;;6.38;;
69716;SDS011;67420;46.144;19.666;2023-12-04T04:40:06;7.55;;;6.22;;
69716;SDS011;67420;46.144;19.666;2023-12-04T04:50:09;8.88;;;6.25;;
69716;SDS011;67420;46.144;19.666;2023-12-04T05:00:11;8.43;;;6.55;;
69716;SDS011;67420;46.144;19.666;2023-12-04T05:10:13;8.77;;;6.82;;
69716;SDS011;67420;46.144;19.666;2023-12-04T05:20:15;9.23;;;7.10;;
69716;SDS011;67420;46.144;19.666;2023-12-04T05:30:17;8.45;;;6.90;;
69716;SDS011;67420;46.144;19.666;2023-12-04T05:40:19;9.75;;;6.97;;
69716;SDS011;67420;46.144;19.666;2023-12-04T05:50:21;9.55;;;7.55;;
69716;SDS011;67420;46.144;19.666;2023-12-04T06:00:23;11.18;;;8.15;;
69716;SDS011;67420;46.144;19.666;2023-12-04T06:10:29;9.93;;;8.10;;
69716;SDS011;67420;46.144;19.666;2023-12-04T06:20:32;9.60;;;7.55;;
69716;SDS011;67420;46.144;19.666;2023-12-04T06:30:34;9.77;;;8.30;;
69716;SDS011;67420;46.144;19.666;2023-12-04T06:40:39;12.30;;;8.65;;
69716;SDS011;67420;46.144;19.666;2023-12-04T06:50:41;14.30;;;9.93;;
69716;SDS011;67420;46.144;19.666;2023-12-04T07:00:44;12.45;;;9.95;;
69716;SDS011;67420;46.144;19.666;2023-12-04T07:10:46;14.43;;;11.50;;
69716;SDS011;67420;46.144;19.666;2023-12-04T07:20:48;13.68;;;10.60;;
69716;SDS011;67420;46.144;19.666;2023-12-04T07:30:54;15.30;;;10.52;;
69716;SDS011;67420;46.144;19.666;2023-12-04T07:40:56;13.73;;;9.85;;
69716;SDS011;67420;46.144;19.666;2023-12-04T07:50:58;13.48;;;9.98;;
69716;SDS011;67420;46.144;19.666;2023-12-04T08:01:00;14.23;;;9.73;;
69716;SDS011;67420;46.144;19.666;2023-12-04T08:11:02;14.73;;;11.15;;
69716;SDS011;67420;46.144;19.666;2023-12-04T08:21:03;12.93;;;10.43;;
69716;SDS011;67420;46.144;19.666;2023-12-04T08:31:06;12.23;;;9.88;;
69716;SDS011;67420;46.144;19.666;2023-12-04T08:41:09;12.65;;;10.23;;
69716;SDS011;67420;46.144;19.666;2023-12-04T08:51:15;15.80;;;10.55;;
69716;SDS011;67420;46.144;19.666;2023-12-04T09:01:18;15.88;;;9.98;;
69716;SDS011;67420;46.144;19.666;2023-12-04T09:11:20;14.30;;;10.38;;
69716;SDS011;67420;46.144;19.666;2023-12-04T09:21:24;14.25;;;10.50;;
69716;SDS011;67420;46.144;19.666;2023-12-04T09:31:28;16.83;;;9.70;;
69716;SDS011;67420;46.144;19.666;2023-12-04T09:41:30;13.10;;;10.02;;
69716;SDS011;67420;46.144;19.666;2023-12-04T09:51:33;12.32;;;8.82;;
69716;SDS011;67420;46.144;19.666;2023-12-04T10:01:36;12.23;;;8.00;;
69716;SDS011;67420;46.144;19.666;2023-12-04T10:11:39;11.45;;;8.10;;
69716;SDS011;67420;46.144;19.666;2023-12-04T10:21:43;10.50;;;7.07;;
69716;SDS011;67420;46.144;19.666;2023-12-04T10:31:46;8.13;;;6.35;;
69716;SDS011;67420;46.144;19.666;2023-12-04T10:42:01;8.90;;;7.13;;
69716;SDS011;67420;46.144;19.666;2023-12-04T10:52:04;7.50;;;6.03;;
69716;SDS011;67420;46.144;19.666;2023-12-04T11:02:07;7.53;;;6.20;;
69716;SDS011;67420;46.144;19.666;2023-12-04T11:12:21;7.32;;;5.32;;
69716;SDS011;67420;46.144;19.666;2023-12-04T11:22:27;8.85;;;6.10;;
69716;SDS011;67420;46.144;19.666;2023-12-04T11:32:30;6.38;;;5.15;;
69716;SDS011;67420;46.144;19.666;2023-12-04T11:42:32;7.53;;;5.30;;
69716;SDS011;67420;46.144;19.666;2023-12-04T11:52:34;6.25;;;5.10;;
69716;SDS011;67420;46.144;19.666;2023-12-04T12:02:36;6.13;;;4.50;;
69716;SDS011;67420;46.144;19.666;2023-12-04T12:13:00;5.85;;;4.85;;
69716;SDS011;67420;46.144;19.666;2023-12-04T12:23:03;8.68;;;6.13;;
69716;SDS011;67420;46.144;19.666;2023-12-04T12:33:05;7.28;;;5.20;;
69716;SDS011;67420;46.144;19.666;2023-12-04T12:43:08;7.25;;;5.10;;
69716;SDS011;67420;46.144;19.666;2023-12-04T12:53:10;6.00;;;5.07;;
69716;SDS011;67420;46.144;19.666;2023-12-04T13:03:14;7.18;;;4.90;;
69716;SDS011;67420;46.144;19.666;2023-12-04T13:13:16;5.10;;;4.30;;
69716;SDS011;67420;46.144;19.666;2023-12-04T13:23:19;5.40;;;4.30;;
69716;SDS011;67420;46.144;19.666;2023-12-04T13:33:20;5.63;;;4.35;;
69716;SDS011;67420;46.144;19.666;2023-12-04T13:43:22;5.25;;;4.30;;
69716;SDS011;67420;46.144;19.666;2023-12-04T14:03:46;5.38;;;4.00;;
69716;SDS011;67420;46.144;19.666;2023-12-04T14:13:49;5.85;;;4.00;;
69716;SDS011;67420;46.144;19.666;2023-12-04T14:23:51;5.00;;;4.25;;
69716;SDS011;67420;46.144;19.666;2023-12-04T14:33:53;7.53;;;4.88;;
69716;SDS011;67420;46.144;19.666;2023-12-04T14:43:55;8.80;;;5.72;;
69716;SDS011;67420;46.144;19.666;2023-12-04T14:53:57;7.45;;;5.70;;
69716;SDS011;67420;46.144;19.666;2023-12-04T15:04:15;9.35;;;6.20;;
69716;SDS011;67420;46.144;19.666;2023-12-04T15:14:37;12.27;;;6.63;;
69716;SDS011;67420;46.144;19.666;2023-12-04T15:24:54;7.88;;;6.05;;
69716;SDS011;67420;46.144;19.666;2023-12-04T15:34:56;10.95;;;6.50;;
69716;SDS011;67420;46.144;19.666;2023-12-04T15:45:01;10.70;;;6.53;;
69716;SDS011;67420;46.144;19.666;2023-12-04T15:55:03;14.93;;;7.80;;
69716;SDS011;67420;46.144;19.666;2023-12-04T16:05:06;11.00;;;7.60;;
69716;SDS011;67420;46.144;19.666;2023-12-04T16:15:09;11.00;;;8.07;;
69716;SDS011;67420;46.144;19.666;2023-12-04T16:25:11;12.45;;;8.23;;
69716;SDS011;67420;46.144;19.666;2023-12-04T16:35:19;11.93;;;8.32;;
69716;SDS011;67420;46.144;19.666;2023-12-04T16:45:21;12.55;;;7.70;;
69716;SDS011;67420;46.144;19.666;2023-12-04T16:55:23;14.75;;;8.35;;
69716;SDS011;67420;46.144;19.666;2023-12-04T17:05:25;10.63;;;7.60;;
69716;SDS011;67420;46.144;19.666;2023-12-04T17:15:29;11.25;;;7.70;;
69716;SDS011;67420;46.144;19.666;2023-12-04T17:25:31;11.13;;;7.68;;
69716;SDS011;67420;46.144;19.666;2023-12-04T17:35:34;9.27;;;7.07;;
69716;SDS011;67420;46.144;19.666;2023-12-04T17:45:36;11.90;;;6.72;;
69716;SDS011;67420;46.144;19.666;2023-12-04T17:55:39;9.82;;;6.88;;
69716;SDS011;67420;46.144;19.666;2023-12-04T18:05:41;11.60;;;7.13;;
69716;SDS011;67420;46.144;19.666;2023-12-04T18:15:45;13.55;;;7.35;;
69716;SDS011;67420;46.144;19.666;2023-12-04T18:25:47;12.48;;;7.85;;
69716;SDS011;67420;46.144;19.666;2023-12-04T18:35:49;15.00;;;8.35;;
69716;SDS011;67420;46.144;19.666;2023-12-04T18:45:51;10.60;;;7.25;;
69716;SDS011;67420;46.144;19.666;2023-12-04T18:55:54;9.98;;;7.65;;
69716;SDS011;67420;46.144;19.666;2023-12-04T19:05:56;11.45;;;6.85;;
69716;SDS011;67420;46.144;19.666;2023-12-04T19:15:58;10.55;;;7.47;;
69716;SDS011;67420;46.144;19.666;2023-12-04T19:26:00;9.88;;;7.22;;
69716;SDS011;67420;46.144;19.666;2023-12-04T19:36:05;15.55;;;8.00;;
69716;SDS011;67420;46.144;19.666;2023-12-04T19:46:08;15.90;;;8.43;;
69716;SDS011;67420;46.144;19.666;2023-12-04T19:56:10;16.55;;;8.18;;
69716;SDS011;67420;46.144;19.666;2023-12-04T20:06:12;14.20;;;7.90;;
69716;SDS011;67420;46.144;19.666;2023-12-04T20:16:14;14.95;;;8.48;;
69716;SDS011;67420;46.144;19.666;2023-12-04T20:26:16;16.77;;;8.50;;
69716;SDS011;67420;46.144;19.666;2023-12-04T20:36:19;14.18;;;8.00;;
69716;SDS011;67420;46.144;19.666;2023-12-04T20:46:21;15.77;;;7.90;;
69716;SDS011;67420;46.144;19.666;2023-12-04T20:56:23;14.43;;;8.63;;
69716;SDS011;67420;46.144;19.666;2023-12-04T21:06:25;19.70;;;8.60;;
69716;SDS011;67420;46.144;19.666;2023-12-04T21:16:27;15.57;;;8.30;;
69716;SDS011;67420;46.144;19.666;2023-12-04T21:26:28;13.98;;;8.45;;
69716;SDS011;67420;46.144;19.666;2023-12-04T21:36:30;16.60;;;8.52;;
69716;SDS011;67420;46.144;19.666;2023-12-04T21:46:33;14.35;;;8.73;;
69716;SDS011;67420;46.144;19.666;2023-12-04T21:56:35;11.32;;;7.78;;
69716;SDS011;67420;46.144;19.666;2023-12-04T22:06:37;13.93;;;8.05;;
69716;SDS011;67420;46.144;19.666;2023-12-04T22:16:39;11.23;;;7.90;;
69716;SDS011;67420;46.144;19.666;2023-12-04T22:26:41;12.35;;;7.35;;
69716;SDS011;67420;46.144;19.666;2023-12-04T22:36:43;9.45;;;6.68;;
69716;SDS011;67420;46.144;19.666;2023-12-04T22:46:45;9.73;;;7.18;;
69716;SDS011;67420;46.144;19.666;2023-12-04T22:56:47;10.05;;;7.25;;
69716;SDS011;67420;46.144;19.666;2023-12-04T23:06:49;9.88;;;6.88;;
69716;SDS011;67420;46.144;19.666;2023-12-04T23:16:52;9.05;;;6.57;;
69716;SDS011;67420;46.144;19.666;2023-12-04T23:26:53;8.63;;;6.30;;
69716;SDS011;67420;46.144;19.666;2023-12-04T23:36:55;8.88;;;6.35;;
69716;SDS011;67420;46.144;19.666;2023-12-04T23:46:57;8.63;;;6.35;;
69716;SDS011;67420;46.144;19.666;2023-12-04T23:56:59;8.05;;;6.30;;
